Dickinson, ND

1:08 PM MDT on July 07, 2015 (GMT -0600)
Dickinson Municipal | | Change Station
CLOSE
Current Station
Airport
Location: Dickinson,
Elevation: 2592 ft
Nearby Weather Stations

Elev 2592 ft 46.80 °N, 102.80 °W | Updated 12 minutes ago

Clear
Clear
74 °F
Feels Like 74 °F
N
15
Wind Variable Wind from SE

Today
High -- | Low -- °F
--% Chance of Precip.
Yesterday
High -- | Low -- °F
Precip. -- in
5:04 AM 8:47 PM
Waning Gibbous, 62% visible
Pressure 30.03 in
Visibility 9.0 miles
Clouds Few 4600 ft
Mostly Cloudy 6000 ft
Dew Point 58 °F
Humidity 57%
Rainfall 0.00 in
Snow Depth Not available.
UV 6 out of 12
Pollen 4.50 out of 12
Air Quality Not available.
Flu Activity Not available.
METAR KDIK 071856Z AUTO 14013KT 9SM FEW046 BKN060 23/14 A3005 RMK AO2 SLP168 T02330144

More Conditions Fewer Conditions

Pressure 30.03 in
Visibility 9.0 miles
Clouds Few 4600 ft
Mostly Cloudy 6000 ft
Dew Point 58 °F
Humidity 57%
Rainfall 0.00 in
Snow Depth Not available.
UV 6 out of 12
Pollen 4.50 out of 12
Air Quality Not available.
Flu Activity Not available.
METAR KDIK 071856Z AUTO 14013KT 9SM FEW046 BKN060 23/14 A3005 RMK AO2 SLP168 T02330144

More Conditions Fewer Conditions

10-Day Weather Forecast

×

Almanac

Astronomy

Jul. 07, 2015 Rise Set
Actual Time
Civil Twilight
Nautical Twilight
Astronomical Twilight
Moon
Length of Visible Light
Length of Day
Tomorrow will be .
, % of the Moon is Illuminated

Today's Extremes

State Highs State Lows

Community

WunderPhotos

Upload Photos

1,835,873 photos uploaded!

WunderBlogs® & News

Nearby

Air Quality

  Air Quality AQ Index Pollutant
Not available.

Snow Depth

Station Depth Elevation

Earthquake Activity

City Distance Mag. Time & Date
Minimum magnitude displayed is 2.5.

Coastal Water Temperatures

Place Temperature

Stations

Nearby Weather Stations

Station Location Temp. Windchill Dew Point Humidity Wind Precip. Elev Updated Type